Saint Charles, MO

2:40 PM CST on February 12, 2016 (GMT -0600)
Monticello | | Change Station
CLOSE
Current Station
Personal Weather Station
Location: OFallon, MO
Elevation: 509 ft
Nearby Weather Stations

Elev 509 ft 38.74 °N, 90.70 °W | Updated 15 minutes ago

Mostly Cloudy
Mostly Cloudy
31.3 °F
Feels Like 24 °F
N
7.3
Wind Variable Wind from NNE

Today
High -- | Low -- °F
--% Chance of Precip.
Yesterday
High -- | Low -- °F
Precip. -- in
Pressure 30.35 in
Visibility 10.0 miles
Clouds Mostly Cloudy 2800 ft
Windchill 24 °F
Dew Point 21 °F
Humidity 64%
Rainfall 0.00 in
Snow Depth Not available.
6:57 AM 5:36 PM
Waxing Crescent, 23% visible
METAR KSUS 121954Z 32015G20KT 10SM BKN028 00/M06 A3032 RMK AO2 SLP278 T00001061
Pressure 30.35 in
Visibility 10.0 miles
Clouds Mostly Cloudy 2800 ft
Windchill 24 °F
Dew Point 21 °F
Humidity 64%
Rainfall 0.00 in
Snow Depth Not available.
6:57 AM 5:36 PM
Waxing Crescent, 23% visible
METAR KSUS 121954Z 32015G20KT 10SM BKN028 00/M06 A3032 RMK AO2 SLP278 T00001061

10-Day Weather Forecast

Almanac

Astronomy

Feb. 12, 2016 Rise Set
Actual Time
Civil Twilight
Nautical Twilight
Astronomical Twilight
Moon
Length of Visible Light
Length of Day
Tomorrow will be .
, % of the Moon is Illuminated

Today's Extremes

State Highs State Lows

Community

WunderPhotos

Upload Photos

1,892,388 photos uploaded!

WunderBlog® & News

Nearby

Air Quality

  Air Quality AQ Index Pollutant
Not available.

Snow Depth

Station Depth Elevation

Earthquake Activity

City Distance Mag. Time & Date
Minimum magnitude displayed is 2.5.

Coastal Water Temperatures

Place Temperature

Stations

Nearby Weather Stations

Station Location Temp. Windchill Dew Point Humidity Wind Precip. Elev Updated Type
                   

Watches & Warnings

There are currently no watches in effect.